Time;durP1;ratioP1;P1;durP2;ratioP2;P2;SDS_P1;SDS_P2;PMS_P1;PMS_P2;Temp;Humidity;BMP_temperature;BMP_pressure;BME280_temperature;BME280_humidity;BME280_pressure;Samples;Min_cycle;Max_cycle;Signal;HPM_P1;HPM_P2
2022/06/09 00:01:15;;;;;;;30.55;15.13;;;14.10;99.90;;;;;;5094099;28;20024;-68
2022/06/09 00:03:48;;;;;;;38.15;15.35;;;14.10;99.90;;;;;;5094010;28;20086;-68
2022/06/09 00:06:16;;;;;;;31.73;14.30;;;14.10;99.90;;;;;;5093895;28;20119;-67
2022/06/09 00:08:45;;;;;;;28.40;14.77;;;14.10;99.90;;;;;;5094119;28;20146;-67
2022/06/09 00:11:15;;;;;;;29.55;15.07;;;14.10;99.90;;;;;;5094038;28;20436;-68
2022/06/09 00:13:41;;;;;;;29.05;15.02;;;14.10;99.90;;;;;;5093778;28;20024;-67
2022/06/09 00:16:09;;;;;;;36.35;16.88;;;14.10;99.90;;;;;;5094031;28;20389;-68
2022/06/09 00:18:35;;;;;;;36.55;17.27;;;14.10;99.90;;;;;;5093989;28;20024;-67
2022/06/09 00:21:01;;;;;;;39.08;16.15;;;14.10;99.90;;;;;;5094008;28;20101;-67
2022/06/09 00:23:26;;;;;;;35.33;15.85;;;14.10;99.90;;;;;;5093626;28;20127;-67
2022/06/09 00:25:52;;;;;;;31.30;16.02;;;14.20;99.90;;;;;;5093914;28;20051;-68
2022/06/09 00:28:18;;;;;;;34.95;16.65;;;14.20;99.90;;;;;;5093811;28;20052;-67
2022/06/09 00:30:46;;;;;;;29.15;16.25;;;14.20;99.90;;;;;;5093503;28;20493;-68
2022/06/09 00:33:11;;;;;;;39.03;17.27;;;14.10;99.90;;;;;;5093499;28;20429;-68
2022/06/09 00:35:37;;;;;;;36.25;16.33;;;14.10;99.90;;;;;;5093729;28;20024;-67
2022/06/09 00:38:03;;;;;;;32.28;16.30;;;14.10;99.90;;;;;;5093505;28;20031;-67
2022/06/09 00:40:29;;;;;;;35.25;17.92;;;14.10;99.90;;;;;;5093694;28;20486;-67
2022/06/09 00:42:54;;;;;;;36.17;19.77;;;14.10;99.90;;;;;;5093405;28;20039;-68
2022/06/09 00:45:38;;;;;;;42.78;19.77;;;14.10;99.90;;;;;;5093453;28;20035;-67
2022/06/09 00:48:28;;;;;;;38.17;19.77;;;14.00;99.90;;;;;;5093374;28;20542;-67
2022/06/09 00:51:01;;;;;;;38.35;18.67;;;14.00;99.90;;;;;;5108632;28;20040;-68
2022/06/09 00:53:32;;;;;;;34.03;16.75;;;13.90;99.90;;;;;;5093328;28;20024;-68
2022/06/09 00:56:00;;;;;;;38.38;17.35;;;14.00;99.90;;;;;;5093600;28;20032;-68
2022/06/09 00:58:28;;;;;;;30.40;15.57;;;13.90;99.90;;;;;;5093507;28;20020;-68
2022/06/09 01:00:59;;;;;;;36.38;17.00;;;13.90;99.90;;;;;;5093455;28;20505;-68
2022/06/09 01:03:29;;;;;;;36.55;18.27;;;13.90;99.90;;;;;;5093474;28;20024;-68
2022/06/09 01:06:06;;;;;;;37.05;18.70;;;13.90;99.90;;;;;;5093121;28;20052;-69
2022/06/09 01:08:35;;;;;;;39.80;19.25;;;13.90;99.90;;;;;;5093403;28;20031;-67
2022/06/09 01:11:01;;;;;;;37.22;18.60;;;13.90;99.90;;;;;;5093050;28;20035;-68
2022/06/09 01:13:27;;;;;;;35.00;18.00;;;13.90;99.90;;;;;;5091864;28;20032;-68
2022/06/09 01:16:04;;;;;;;36.97;18.05;;;13.90;99.90;;;;;;5093491;28;20066;-67
2022/06/09 01:18:54;;;;;;;37.50;18.85;;;13.90;99.90;;;;;;5093085;28;20491;-68
2022/06/09 01:21:43;;;;;;;47.72;19.33;;;13.90;99.90;;;;;;5091833;28;20044;-67
2022/06/09 01:24:37;;;;;;;39.95;19.75;;;13.80;99.90;;;;;;5093255;28;20065;-67
2022/06/09 01:30:13;;;;;;;36.15;17.90;;;13.80;99.90;;;;;;5111178;27;20380;-67
2022/06/09 01:32:45;;;;;;;38.53;17.60;;;13.70;99.90;;;;;;5111144;28;20541;-68
2022/06/09 01:35:23;;;;;;;36.05;17.20;;;13.70;99.90;;;;;;5111035;28;20351;-68
2022/06/09 01:37:53;;;;;;;33.55;16.58;;;13.60;99.90;;;;;;5111089;28;20028;-68
2022/06/09 01:40:20;;;;;;;30.42;16.05;;;13.60;99.90;;;;;;5109840;28;20016;-68
2022/06/09 01:42:49;;;;;;;44.50;17.50;;;13.60;99.90;;;;;;5110897;28;20019;-68
2022/06/09 01:45:26;;;;;;;31.90;15.82;;;13.60;99.90;;;;;;5111115;28;20115;-68
2022/06/09 01:48:04;;;;;;;44.72;15.85;;;13.50;99.90;;;;;;5110942;28;20028;-67
2022/06/09 01:50:40;;;;;;;33.60;16.23;;;13.50;99.90;;;;;;5109772;28;20020;-67
2022/06/09 01:53:10;;;;;;;29.10;15.98;;;13.50;99.90;;;;;;5110948;28;20424;-67
2022/06/09 01:55:42;;;;;;;41.13;16.52;;;13.50;99.90;;;;;;5110678;28;20023;-68
2022/06/09 01:58:11;;;;;;;45.60;17.63;;;13.50;99.90;;;;;;5110599;28;20034;-68
2022/06/09 02:00:53;;;;;;;31.27;15.88;;;13.50;99.90;;;;;;5110491;28;20032;-67
2022/06/09 02:03:24;;;;;;;31.75;16.02;;;13.50;99.90;;;;;;5109202;28;20032;-67
2022/06/09 02:05:53;;;;;;;47.70;17.45;;;13.50;99.90;;;;;;5109552;28;20085;-67
2022/06/09 02:08:22;;;;;;;40.05;17.33;;;13.50;99.90;;;;;;5110568;28;20027;-67
2022/06/09 02:10:53;;;;;;;36.60;17.17;;;13.50;99.90;;;;;;5110400;28;20111;-68
2022/06/09 02:13:29;;;;;;;42.85;16.45;;;13.50;99.90;;;;;;5110508;28;20036;-67
2022/06/09 02:15:59;;;;;;;40.75;16.50;;;13.40;99.90;;;;;;5110493;28;20551;-67
2022/06/09 02:18:30;;;;;;;37.95;16.20;;;13.40;99.90;;;;;;5110437;28;20466;-67
2022/06/09 02:21:00;;;;;;;35.45;16.00;;;13.40;99.90;;;;;;5110130;28;20022;-67
2022/06/09 02:23:26;;;;;;;35.13;14.27;;;13.50;99.90;;;;;;5110333;28;20439;-67
2022/06/09 02:25:52;;;;;;;36.47;16.40;;;13.40;99.90;;;;;;5108774;28;20024;-68
2022/06/09 02:28:17;;;;;;;35.28;15.27;;;13.50;99.90;;;;;;5109817;28;20414;-68
2022/06/09 02:30:43;;;;;;;35.92;14.77;;;13.50;99.90;;;;;;5110221;28;20020;-67
2022/06/09 02:33:09;;;;;;;41.33;15.35;;;13.50;99.90;;;;;;5109017;28;20024;-67
2022/06/09 02:35:35;;;;;;;38.38;15.52;;;13.50;99.90;;;;;;5110117;28;20530;-67
2022/06/09 02:38:01;;;;;;;36.90;14.30;;;13.60;99.90;;;;;;5108646;28;20030;-67
2022/06/09 02:40:28;;;;;;;33.90;14.73;;;13.50;99.90;;;;;;5100106;28;20060;-67
2022/06/09 02:42:54;;;;;;;33.33;13.65;;;13.50;99.90;;;;;;5096457;28;20581;-68
2022/06/09 02:45:20;;;;;;;27.85;13.23;;;13.50;99.90;;;;;;5096345;28;20027;-68
2022/06/09 02:47:45;;;;;;;33.33;13.65;;;13.50;99.90;;;;;;5095976;28;20410;-68
2022/06/09 02:50:12;;;;;;;25.38;12.90;;;13.50;99.90;;;;;;5096283;28;20020;-67
2022/06/09 02:52:38;;;;;;;29.77;13.23;;;13.60;99.90;;;;;;5077944;28;20026;-67
2022/06/09 02:55:04;;;;;;;31.15;12.68;;;13.60;99.90;;;;;;5095939;28;20028;-68
2022/06/09 02:57:30;;;;;;;32.22;14.10;;;13.60;99.90;;;;;;5095893;28;20021;-68
2022/06/09 02:59:56;;;;;;;31.08;11.88;;;13.60;99.90;;;;;;5095874;28;20096;-67
2022/06/09 03:02:22;;;;;;;30.88;12.27;;;13.60;99.90;;;;;;5095897;28;20563;-67
2022/06/09 03:04:48;;;;;;;34.30;12.35;;;13.60;99.90;;;;;;5095987;28;20415;-67
2022/06/09 03:07:14;;;;;;;26.27;11.00;;;13.70;99.90;;;;;;5095869;28;20050;-67
2022/06/09 03:09:40;;;;;;;28.90;10.93;;;13.70;99.90;;;;;;5095533;28;20060;-68
2022/06/09 03:12:06;;;;;;;27.55;10.90;;;13.70;99.90;;;;;;5095565;28;20012;-67
2022/06/09 03:14:33;;;;;;;31.48;11.68;;;13.80;99.90;;;;;;5094330;28;20026;-67
2022/06/09 03:17:00;;;;;;;23.23;10.27;;;13.80;99.90;;;;;;5095787;28;20119;-67
2022/06/09 03:19:26;;;;;;;28.42;10.77;;;13.80;99.90;;;;;;5095490;28;20026;-68
2022/06/09 03:21:52;;;;;;;29.20;10.13;;;13.80;99.90;;;;;;5094223;28;20099;-67
2022/06/09 03:24:17;;;;;;;22.52;9.52;;;13.80;99.90;;;;;;5095648;28;20102;-68
2022/06/09 03:26:43;;;;;;;24.55;9.82;;;13.90;99.90;;;;;;5094461;28;20020;-67
2022/06/09 03:29:09;;;;;;;28.90;9.52;;;13.80;99.90;;;;;;5094955;28;20169;-67
2022/06/09 03:31:35;;;;;;;25.13;9.93;;;13.90;99.90;;;;;;5095199;28;20028;-68
2022/06/09 03:34:02;;;;;;;25.23;10.18;;;13.90;99.90;;;;;;5095405;28;20016;-67
2022/06/09 03:36:29;;;;;;;25.05;9.30;;;13.90;99.90;;;;;;5094262;28;20020;-67
2022/06/09 03:38:55;;;;;;;23.92;9.30;;;13.90;99.90;;;;;;5095349;28;20032;-67
2022/06/09 03:41:20;;;;;;;25.05;9.40;;;14.00;99.90;;;;;;5094137;28;20467;-67
2022/06/09 03:43:46;;;;;;;27.95;9.88;;;13.90;99.90;;;;;;5093725;28;20131;-67
2022/06/09 03:46:12;;;;;;;29.42;10.43;;;13.90;99.90;;;;;;5095171;28;20062;-68
2022/06/09 03:48:38;;;;;;;28.55;10.20;;;14.00;99.90;;;;;;5094755;28;20024;-68
2022/06/09 03:51:04;;;;;;;24.45;9.77;;;14.00;99.90;;;;;;5092944;28;20028;-68
2022/06/09 03:53:29;;;;;;;28.92;10.13;;;14.00;99.90;;;;;;5094455;28;20047;-68
2022/06/09 03:55:57;;;;;;;27.75;10.77;;;14.00;99.90;;;;;;5094996;28;20024;-68
2022/06/09 03:58:23;;;;;;;24.88;9.85;;;14.00;99.90;;;;;;5094693;28;20036;-68
2022/06/09 04:00:48;;;;;;;31.17;10.70;;;14.00;99.90;;;;;;5094912;28;20398;-68
2022/06/09 04:03:14;;;;;;;25.58;10.38;;;14.00;99.90;;;;;;5094642;28;20028;-68
2022/06/09 04:05:40;;;;;;;27.75;10.85;;;14.00;99.90;;;;;;5094546;28;20039;-68
2022/06/09 04:08:06;;;;;;;25.73;11.48;;;14.00;99.90;;;;;;5094737;28;20024;-68
2022/06/09 04:10:33;;;;;;;32.42;11.68;;;14.00;99.90;;;;;;5094593;28;20466;-67
2022/06/09 04:12:59;;;;;;;30.15;13.40;;;14.00;99.90;;;;;;5094686;28;20035;-67
2022/06/09 04:15:25;;;;;;;24.90;12.15;;;14.00;99.90;;;;;;5094640;28;20371;-67
2022/06/09 04:17:52;;;;;;;33.97;14.25;;;14.00;99.90;;;;;;5093413;28;20107;-67
2022/06/09 04:20:20;;;;;;;27.75;13.45;;;14.00;99.90;;;;;;5094313;28;20012;-67
2022/06/09 04:22:46;;;;;;;33.67;14.63;;;14.00;99.90;;;;;;5094179;28;20030;-67
2022/06/09 04:25:12;;;;;;;31.38;14.35;;;14.10;99.90;;;;;;5094494;28;20020;-68
2022/06/09 04:27:38;;;;;;;36.55;15.02;;;14.10;99.90;;;;;;5094076;28;20466;-67
2022/06/09 04:30:04;;;;;;;34.72;14.40;;;14.10;99.90;;;;;;5094160;28;20028;-67
2022/06/09 04:32:30;;;;;;;38.75;16.63;;;14.10;99.90;;;;;;5094289;28;20115;-67
2022/06/09 04:34:56;;;;;;;32.28;16.35;;;14.10;99.90;;;;;;5094101;28;20048;-68
2022/06/09 04:37:59;;;;;;;36.45;17.77;;;14.20;99.90;;;;;;5092820;28;20012;-68
2022/06/09 04:40:09;;;;;;;33.72;17.38;;;14.20;99.90;;;;;;5093789;28;20020;-68
2022/06/09 04:42:34;;;;;;;35.10;17.58;;;14.10;99.90;;;;;;5094201;28;20128;-68
2022/06/09 04:45:00;;;;;;;46.47;19.92;;;14.20;99.90;;;;;;5093778;28;20058;-68
2022/06/09 04:47:25;;;;;;;42.72;18.40;;;14.10;99.90;;;;;;5094027;28;20024;-69
2022/06/09 04:49:51;;;;;;;34.95;20.42;;;14.10;99.90;;;;;;5075620;28;20158;-69
2022/06/09 04:52:17;;;;;;;40.35;20.40;;;14.10;99.90;;;;;;5092553;28;20051;-67
2022/06/09 04:54:42;;;;;;;42.30;19.60;;;14.20;99.90;;;;;;5093924;28;20055;-68
2022/06/09 04:57:08;;;;;;;39.22;20.38;;;14.20;99.90;;;;;;5092386;28;20513;-68
2022/06/09 04:59:33;;;;;;;45.45;21.25;;;14.20;99.90;;;;;;5092543;28;20031;-68
2022/06/09 05:01:59;;;;;;;44.22;20.80;;;14.20;99.90;;;;;;5092381;28;20024;-67
2022/06/09 05:04:24;;;;;;;44.20;20.65;;;14.30;99.90;;;;;;5093330;28;20085;-68
2022/06/09 05:06:50;;;;;;;45.40;21.40;;;14.20;99.90;;;;;;5093554;28;20027;-68
2022/06/09 05:09:17;;;;;;;41.20;21.35;;;14.20;99.90;;;;;;5075257;28;20036;-68
2022/06/09 05:11:43;;;;;;;40.60;22.00;;;14.20;99.90;;;;;;5093441;28;20085;-67
2022/06/09 05:14:09;;;;;;;46.88;23.73;;;14.20;99.90;;;;;;5092160;28;20019;-68
2022/06/09 05:16:35;;;;;;;45.53;22.52;;;14.20;99.90;;;;;;5093390;28;20107;-68
2022/06/09 05:19:01;;;;;;;54.55;25.58;;;14.20;99.90;;;;;;5093654;28;20043;-67
2022/06/09 05:21:26;;;;;;;52.45;26.25;;;14.20;99.90;;;;;;5092103;28;20099;-68
2022/06/09 05:23:52;;;;;;;47.88;26.05;;;14.20;99.90;;;;;;5093272;28;20020;-67
2022/06/09 05:26:17;;;;;;;52.00;25.30;;;14.20;99.90;;;;;;5093529;28;20028;-67
2022/06/09 05:28:44;;;;;;;52.78;26.63;;;14.30;99.90;;;;;;5093077;28;20043;-67
2022/06/09 05:31:09;;;;;;;59.22;28.67;;;14.20;99.90;;;;;;5092318;28;20531;-68
2022/06/09 05:33:35;;;;;;;51.53;26.80;;;14.30;99.90;;;;;;5093368;28;20020;-67
2022/06/09 05:36:00;;;;;;;58.22;28.23;;;14.30;99.90;;;;;;5093009;28;20024;-68
2022/06/09 05:46:45;;;;;;;59.85;32.17;;;14.40;99.90;;;;;;5092917;28;20062;-68
2022/06/09 05:49:11;;;;;;;61.80;32.17;;;14.40;99.90;;;;;;5093049;28;20050;-67
2022/06/09 05:51:37;;;;;;;57.85;30.95;;;14.40;99.90;;;;;;5093198;28;20028;-67
2022/06/09 05:54:03;;;;;;;56.10;30.95;;;14.40;99.90;;;;;;5092982;28;20025;-68
2022/06/09 05:56:29;;;;;;;58.80;32.13;;;14.40;99.90;;;;;;5093021;28;20024;-67
2022/06/09 05:58:55;;;;;;;61.88;32.85;;;14.40;99.90;;;;;;5093267;28;20031;-67
2022/06/09 06:01:21;;;;;;;55.42;30.92;;;14.40;99.90;;;;;;5093272;28;20028;-67
2022/06/09 06:03:46;;;;;;;60.35;31.20;;;14.50;99.90;;;;;;5093271;28;20062;-67
2022/06/09 06:06:43;;;;;;;59.85;31.85;;;14.60;99.90;;;;;;5093178;28;20437;-67
2022/06/09 06:08:57;;;;;;;57.20;31.42;;;14.70;99.90;;;;;;5092960;28;20541;-67
2022/06/09 06:11:23;;;;;;;56.78;32.78;;;14.80;99.90;;;;;;5093212;28;20020;-67
2022/06/09 06:13:50;;;;;;;49.08;30.73;;;14.90;99.90;;;;;;5093247;28;20031;-67
2022/06/09 06:16:15;;;;;;;58.50;31.63;;;14.90;99.90;;;;;;5096269;28;20081;-68
2022/06/09 06:18:41;;;;;;;50.67;31.27;;;14.90;99.90;;;;;;5096939;28;20031;-67
2022/06/09 06:21:07;;;;;;;49.80;31.00;;;14.90;99.90;;;;;;5096899;28;20055;-71
2022/06/09 06:23:33;;;;;;;48.20;30.48;;;15.10;99.90;;;;;;5095671;28;20580;-68
2022/06/09 06:25:58;;;;;;;51.35;30.50;;;15.20;99.90;;;;;;5093798;28;20020;-68
2022/06/09 06:28:26;;;;;;;57.15;30.38;;;15.20;99.90;;;;;;5094193;28;20048;-68
2022/06/09 06:30:52;;;;;;;46.97;28.48;;;15.20;99.90;;;;;;5096501;28;20016;-68
2022/06/09 06:33:18;;;;;;;51.00;29.70;;;15.20;99.90;;;;;;5094803;28;20070;-68
2022/06/09 06:35:44;;;;;;;49.53;28.52;;;15.40;99.90;;;;;;5096468;28;20048;-68
2022/06/09 06:38:10;;;;;;;45.60;29.83;;;15.50;99.90;;;;;;5096346;28;20375;-68
2022/06/09 06:40:36;;;;;;;44.88;28.38;;;15.50;99.90;;;;;;5095349;28;20032;-68
2022/06/09 06:43:02;;;;;;;44.92;28.45;;;15.70;99.90;;;;;;5094629;28;20486;-68
2022/06/09 06:45:28;;;;;;;45.13;28.88;;;15.60;99.90;;;;;;5096083;28;20035;-67
2022/06/09 06:47:56;;;;;;;46.65;28.00;;;15.80;99.90;;;;;;5094455;28;20031;-68
2022/06/09 06:50:22;;;;;;;48.08;28.85;;;16.00;99.90;;;;;;5095178;28;20032;-68
2022/06/09 06:52:47;;;;;;;48.22;29.02;;;16.20;99.90;;;;;;5097772;28;20032;-68
2022/06/09 06:55:16;;;;;;;43.33;29.08;;;16.20;99.90;;;;;;5091165;28;20028;-68
2022/06/09 06:57:41;;;;;;;46.65;28.83;;;16.20;99.90;;;;;;5098780;28;20492;-68
2022/06/09 07:00:10;;;;;;;46.42;28.20;;;16.20;99.90;;;;;;5087908;28;20020;-68
2022/06/09 07:02:35;;;;;;;43.72;28.02;;;16.20;99.90;;;;;;5086205;28;20047;-68
2022/06/09 07:05:02;;;;;;;46.00;28.00;;;16.50;99.90;;;;;;5108643;28;20016;-68
2022/06/09 07:07:28;;;;;;;46.78;28.92;;;16.50;99.90;;;;;;5101138;28;20474;-68
2022/06/09 07:09:56;;;;;;;48.78;30.90;;;16.30;99.90;;;;;;5093711;28;20111;-68
2022/06/09 07:12:22;;;;;;;46.90;30.45;;;16.10;99.90;;;;;;5095091;28;20028;-68
2022/06/09 07:14:48;;;;;;;47.72;29.00;;;15.90;99.90;;;;;;5098193;28;20024;-68
2022/06/09 07:17:13;;;;;;;51.28;30.83;;;15.80;99.90;;;;;;5086191;28;20390;-68
2022/06/09 07:19:39;;;;;;;40.83;26.30;;;15.80;99.90;;;;;;5106936;28;20019;-68
2022/06/09 07:22:06;;;;;;;46.60;27.80;;;15.70;99.90;;;;;;5089118;28;20032;-68
2022/06/09 07:24:32;;;;;;;45.28;27.60;;;15.70;99.90;;;;;;5089625;28;20032;-68
2022/06/09 07:26:58;;;;;;;50.95;29.75;;;15.70;99.90;;;;;;5106922;28;20111;-68
2022/06/09 07:29:25;;;;;;;42.88;29.13;;;15.90;99.90;;;;;;5102123;28;20037;-68
2022/06/09 07:31:51;;;;;;;40.33;28.45;;;16.00;99.90;;;;;;5087091;28;20074;-69
2022/06/09 07:34:17;;;;;;;45.95;29.45;;;16.10;99.90;;;;;;5090365;28;20433;-69
2022/06/09 07:36:44;;;;;;;46.90;30.67;;;16.10;99.90;;;;;;5097123;28;20052;-68
2022/06/09 07:39:09;;;;;;;49.10;32.08;;;16.00;99.90;;;;;;5097247;28;20394;-69
2022/06/09 07:41:36;;;;;;;43.85;30.13;;;16.00;99.90;;;;;;5107574;28;20024;-70
2022/06/09 07:44:05;;;;;;;48.08;31.80;;;16.10;99.90;;;;;;5101811;28;20032;-69
2022/06/09 07:46:31;;;;;;;48.70;32.78;;;16.20;99.90;;;;;;5092266;28;20367;-71
2022/06/09 07:48:58;;;;;;;44.00;30.45;;;16.20;99.90;;;;;;5110813;28;20019;-69
2022/06/09 07:51:24;;;;;;;49.08;30.33;;;16.40;99.90;;;;;;5092307;28;20403;-69
2022/06/09 07:53:50;;;;;;;44.15;30.73;;;16.40;99.90;;;;;;5097445;28;20428;-69
2022/06/09 07:56:16;;;;;;;48.20;29.10;;;16.40;99.90;;;;;;5093997;28;20028;-69
2022/06/09 07:58:43;;;;;;;46.70;31.15;;;16.30;99.90;;;;;;5102764;28;20111;-72
2022/06/09 08:01:10;;;;;;;46.05;30.35;;;16.20;99.90;;;;;;5093034;28;20024;-70
2022/06/09 08:03:39;;;;;;;43.50;29.92;;;16.20;99.90;;;;;;5095916;28;20382;-70
2022/06/09 08:06:05;;;;;;;40.20;29.10;;;16.20;99.90;;;;;;5091495;28;20099;-70
2022/06/09 08:08:30;;;;;;;45.15;29.45;;;16.30;99.90;;;;;;5102774;28;20158;-69
2022/06/09 08:10:56;;;;;;;46.83;27.77;;;16.30;99.90;;;;;;5087598;28;20028;-70
2022/06/09 08:13:22;;;;;;;43.17;28.10;;;16.50;99.90;;;;;;5093296;28;20165;-69
2022/06/09 08:15:48;;;;;;;41.92;29.02;;;16.60;99.90;;;;;;5056874;28;20051;-70
2022/06/09 08:18:14;;;;;;;36.40;27.40;;;16.80;99.90;;;;;;5092808;28;20020;-70
2022/06/09 08:20:42;;;;;;;40.13;27.60;;;17.20;99.90;;;;;;5092539;28;20432;-69
2022/06/09 08:23:19;;;;;;;43.28;26.63;;;17.20;99.90;;;;;;5091751;28;20371;-70
2022/06/09 08:25:46;;;;;;;32.72;24.73;;;17.30;99.90;;;;;;5093804;28;20028;-70
2022/06/09 08:28:13;;;;;;;34.28;24.10;;;17.60;99.90;;;;;;5090537;28;20589;-69
2022/06/09 08:30:39;;;;;;;32.50;24.58;;;18.60;99.90;;;;;;5093871;28;20107;-68
2022/06/09 08:33:05;;;;;;;34.50;24.33;;;19.60;99.90;;;;;;5085465;28;20450;-68
2022/06/09 08:35:32;;;;;;;36.45;26.48;;;20.30;99.90;;;;;;5088325;28;20032;-68
2022/06/09 08:37:58;;;;;;;35.97;27.73;;;19.90;99.90;;;;;;5093307;28;20024;-68
2022/06/09 08:40:40;;;;;;;35.20;24.80;;;19.50;99.90;;;;;;5091059;28;20054;-68
2022/06/09 08:43:45;;;;;;;34.70;23.33;;;19.20;99.90;;;;;;5073669;28;20013;-68
2022/06/09 08:46:51;;;;;;;22.55;19.98;;;20.50;99.90;;;;;;5080665;28;20478;-69
2022/06/09 08:49:32;;;;;;;34.25;20.88;;;21.50;99.90;;;;;;5090134;28;20032;-69
2022/06/09 08:52:04;;;;;;;30.30;20.33;;;21.20;99.90;;;;;;5073902;28;20025;-68
2022/06/09 08:54:34;;;;;;;24.27;20.40;;;20.30;99.90;;;;;;5085849;28;20032;-69
2022/06/09 08:57:06;;;;;;;30.38;20.95;;;18.90;99.90;;;;;;5087718;28;20028;-67
2022/06/09 08:59:37;;;;;;;24.83;19.17;;;18.50;99.90;;;;;;5079722;28;20024;-67
2022/06/09 09:02:31;;;;;;;27.80;19.45;;;18.30;99.90;;;;;;5072358;28;20077;-67
2022/06/09 09:05:11;;;;;;;33.63;20.02;;;18.80;99.90;;;;;;5091225;28;20032;-67
2022/06/09 09:07:42;;;;;;;28.10;19.58;;;19.30;99.90;;;;;;5098134;28;20024;-67
2022/06/09 09:10:35;;;;;;;28.50;18.80;;;18.90;99.90;;;;;;5086722;28;20099;-68
2022/06/09 09:13:23;;;;;;;22.95;16.80;;;19.30;99.90;;;;;;5091967;28;20032;-66
2022/06/09 09:15:56;;;;;;;27.98;17.33;;;19.50;99.90;;;;;;5078033;28;20564;-69
2022/06/09 09:18:30;;;;;;;22.35;16.50;;;19.70;99.90;;;;;;5083663;28;20394;-69
2022/06/09 09:24:14;;;;;;;21.08;17.05;;;20.80;99.90;;;;;;5090757;28;20490;-69
2022/06/09 09:26:50;;;;;;;23.73;16.08;;;21.10;99.90;;;;;;5083016;28;20040;-69
2022/06/09 09:29:43;;;;;;;25.15;16.90;;;21.00;99.90;;;;;;5089493;28;20383;-67
2022/06/09 09:32:15;;;;;;;23.02;15.55;;;21.30;99.90;;;;;;5081732;28;20028;-69
2022/06/09 09:34:44;;;;;;;21.25;15.40;;;21.40;99.90;;;;;;5092475;28;20027;-68
2022/06/09 09:37:35;;;;;;;19.90;11.82;;;22.00;99.90;;;;;;5087499;28;20055;-67
2022/06/09 09:40:18;;;;;;;17.08;11.68;;;22.40;99.90;;;;;;5088079;28;20064;-68
2022/06/09 09:42:45;;;;;;;16.13;11.00;;;22.30;99.90;;;;;;5096076;28;20036;-66
2022/06/09 09:45:15;;;;;;;14.07;9.00;;;22.50;99.90;;;;;;5091956;28;20039;-68
2022/06/09 09:47:53;;;;;;;16.58;10.25;;;22.90;99.90;;;;;;5092927;28;20398;-68
2022/06/09 09:50:48;;;;;;;21.15;14.68;;;22.80;99.90;;;;;;5087303;28;20058;-68
2022/06/09 09:53:34;;;;;;;20.25;13.02;;;21.70;99.90;;;;;;5095259;28;20048;-68
2022/06/09 09:58:54;;;;;;;16.73;8.90;;;20.70;99.90;;;;;;5092553;27;20445;-67
2022/06/09 10:09:52;;;;;;;13.43;7.43;;;23.40;99.90;;;;;;5097156;28;20064;-70
2022/06/09 10:12:34;;;;;;;15.93;7.38;;;23.60;99.90;;;;;;5100468;28;20465;-70
2022/06/09 10:18:16;;;;;;;20.88;9.45;;;22.90;99.90;;;;;;5110738;27;20371;-69
2022/06/09 10:21:01;;;;;;;12.18;8.18;;;22.80;99.90;;;;;;5111117;28;20028;-69
2022/06/09 10:23:40;;;;;;;14.48;8.90;;;22.80;99.90;;;;;;5108975;28;20085;-69
2022/06/09 10:26:15;;;;;;;12.57;7.30;;;23.50;99.90;;;;;;5110997;28;20028;-69
2022/06/09 10:28:53;;;;;;;14.32;8.30;;;22.80;99.90;;;;;;5106490;28;20032;-69
2022/06/09 10:31:36;;;;;;;17.60;9.23;;;22.80;99.90;;;;;;5119390;28;20096;-69
2022/06/09 10:37:24;;;;;;;14.73;8.63;;;23.10;99.90;;;;;;5125634;27;20349;-69
2022/06/09 10:40:10;;;;;;;;;;;21.80;99.90;;;;;;5108465;28;20023;-69
2022/06/09 10:42:49;;;;;;;15.15;10.73;;;21.70;99.90;;;;;;5119640;28;19915;-69
2022/06/09 10:45:31;;;;;;;17.90;11.00;;;21.80;99.90;;;;;;5109748;28;20502;-68
2022/06/09 10:57:26;;;;;;;17.92;12.95;;;21.30;99.90;;;;;;5107305;28;20052;-68
2022/06/09 11:00:13;;;;;;;32.28;18.00;;;20.50;99.90;;;;;;5108162;28;20115;-69
2022/06/09 11:02:43;;;;;;;26.10;17.48;;;20.00;99.90;;;;;;5103477;28;20028;-68
2022/06/09 11:05:13;;;;;;;26.73;17.48;;;19.20;99.90;;;;;;5120778;28;20417;-68
2022/06/09 11:07:55;;;;;;;22.45;16.27;;;18.90;99.90;;;;;;5100428;28;20381;-68
2022/06/09 11:10:42;;;;;;;29.73;15.48;;;18.30;99.90;;;;;;5123131;28;20031;-68
2022/06/09 11:13:47;;;;;;;20.50;14.15;;;18.00;99.90;;;;;;5109273;28;20026;-67
2022/06/09 11:16:43;;;;;;;22.63;15.25;;;17.60;99.90;;;;;;5108616;28;20115;-68
2022/06/09 11:22:43;;;;;;;15.35;11.00;;;16.80;99.90;;;;;;5088480;28;20397;-68
2022/06/09 11:25:34;;;;;;;16.77;11.73;;;16.70;99.90;;;;;;5085549;28;20488;-68
2022/06/09 11:31:52;;;;;;;8.65;6.30;;;16.40;99.90;;;;;;5129344;27;20361;-68
2022/06/09 11:37:29;;;;;;;11.57;5.70;;;16.40;99.90;;;;;;5150770;27;20397;-68
2022/06/09 11:43:16;;;;;;;6.65;4.13;;;16.40;99.90;;;;;;5069259;28;20377;-69
2022/06/09 11:45:48;;;;;;;5.68;4.00;;;16.50;99.90;;;;;;5069795;28;20102;-69
2022/06/09 11:48:29;;;;;;;7.30;3.80;;;16.50;99.90;;;;;;5030451;28;20092;-69
2022/06/09 11:50:56;;;;;;;8.13;4.25;;;16.40;99.90;;;;;;5030853;28;20022;-68
2022/06/09 11:53:25;;;;;;;10.05;4.50;;;16.40;99.90;;;;;;5050025;28;20040;-69
2022/06/09 11:56:11;;;;;;;7.38;4.65;;;16.40;99.90;;;;;;5050230;28;20431;-68
2022/06/09 12:04:34;;;;;;;8.55;4.97;;;16.50;99.90;;;;;;5088824;27;20456;-69
2022/06/09 12:10:22;;;;;;;4.22;3.78;;;16.60;99.90;;;;;;5114802;27;1155817;-68
2022/06/09 12:13:17;;;;;;;4.88;3.22;;;16.60;99.90;;;;;;5131471;27;20031;-68
2022/06/09 12:16:13;;;;;;;8.50;5.15;;;16.50;99.90;;;;;;5130741;27;20028;-69
2022/06/09 12:18:48;;;;;;;5.72;3.70;;;16.50;99.90;;;;;;5128602;28;20473;-69
2022/06/09 12:21:29;;;;;;;5.55;2.90;;;16.70;99.90;;;;;;5120068;28;20523;-70
2022/06/09 12:26:56;;;;;;;5.30;2.70;;;16.70;99.90;;;;;;5123189;27;20660;-69
2022/06/09 12:29:44;;;;;;;6.47;3.15;;;16.70;99.90;;;;;;5098815;28;20435;-69
2022/06/09 12:32:18;;;;;;;6.15;3.22;;;17.00;99.90;;;;;;5129268;27;20057;-69
2022/06/09 12:34:49;;;;;;;9.50;6.35;;;16.80;99.90;;;;;;5127179;28;20023;-69
2022/06/09 12:37:24;;;;;;;9.07;3.40;;;17.00;99.90;;;;;;5119631;28;20118;-69
2022/06/09 12:39:54;;;;;;;3.65;3.33;;;17.10;99.90;;;;;;5121401;28;20034;-69
2022/06/09 12:42:27;;;;;;;4.40;2.90;;;17.30;99.90;;;;;;5114881;28;20044;-68
2022/06/09 12:45:16;;;;;;;4.63;3.35;;;17.10;99.90;;;;;;5127244;28;20034;-68
2022/06/09 12:48:09;;;;;;;7.15;3.20;;;17.20;99.90;;;;;;5116995;28;20023;-68
2022/06/09 12:50:44;;;;;;;5.57;3.43;;;17.30;99.90;;;;;;5114869;27;20597;-70
2022/06/09 12:53:25;;;;;;;7.53;3.75;;;17.30;99.90;;;;;;5123238;28;20276;-69
2022/06/09 12:55:56;;;;;;;8.82;3.90;;;17.30;99.90;;;;;;5128268;28;20027;-70
2022/06/09 12:58:46;;;;;;;7.75;3.85;;;17.30;99.90;;;;;;5124925;28;20023;-69
2022/06/09 13:01:17;;;;;;;7.95;4.15;;;17.70;99.90;;;;;;5109292;28;20019;-70
2022/06/09 13:03:49;;;;;;;8.20;3.80;;;18.40;99.90;;;;;;5117918;28;20039;-70
2022/06/09 13:06:37;;;;;;;7.45;3.70;;;18.70;99.90;;;;;;5121199;28;20031;-70
2022/06/09 13:09:31;;;;;;;5.40;4.10;;;19.20;99.90;;;;;;5123432;28;20037;-69
2022/06/09 13:14:48;;;;;;;5.45;3.78;;;19.80;99.90;;;;;;5102654;28;20034;-68
2022/06/09 13:17:21;;;;;;;8.52;3.95;;;19.60;99.90;;;;;;5103757;28;20077;-68
2022/06/09 13:19:56;;;;;;;5.70;3.85;;;19.80;99.90;;;;;;5157391;27;20159;-68
2022/06/09 13:22:24;;;;;;;4.93;3.35;;;20.00;99.90;;;;;;5098344;28;20513;-68
2022/06/09 13:24:49;;;;;;;4.25;3.15;;;20.20;99.90;;;;;;5129498;28;20091;-69
2022/06/09 13:27:20;;;;;;;3.85;3.42;;;20.00;99.90;;;;;;5116982;28;20020;-68
2022/06/09 13:29:58;;;;;;;5.88;4.07;;;20.10;99.90;;;;;;5108781;28;20226;-68
2022/06/09 13:35:42;;;;;;;6.07;3.83;;;20.60;99.90;;;;;;5111259;27;20398;-68
2022/06/09 13:38:32;;;;;;;8.85;5.72;;;20.60;99.90;;;;;;5094454;28;20074;-68
2022/06/09 13:41:03;;;;;;;4.38;3.97;;;20.00;99.90;;;;;;5092363;28;20074;-68
2022/06/09 13:43:32;;;;;;;5.07;4.15;;;20.20;99.90;;;;;;5094949;28;20034;-68
2022/06/09 13:46:19;;;;;;;5.90;3.88;;;19.90;99.90;;;;;;5096141;28;20553;-68
2022/06/09 13:48:58;;;;;;;4.82;4.28;;;19.90;99.90;;;;;;5087849;28;20045;-68
2022/06/09 13:51:38;;;;;;;5.90;4.38;;;19.70;99.90;;;;;;5103678;28;20452;-69
2022/06/09 13:54:32;;;;;;;8.80;4.55;;;19.40;99.90;;;;;;5093976;28;20029;-68
2022/06/09 13:56:58;;;;;;;6.78;3.90;;;19.20;99.90;;;;;;5101329;28;20439;-69
2022/06/09 13:59:25;;;;;;;7.45;3.65;;;19.10;99.90;;;;;;5100645;28;20099;-69
2022/06/09 14:01:53;;;;;;;6.85;3.78;;;19.10;99.90;;;;;;5103591;28;20028;-68
2022/06/09 14:04:28;;;;;;;4.63;3.50;;;19.20;99.90;;;;;;5091752;28;20676;-69